(°F)
64°
64°
64°
64°
64°
64°
64°
(°F)
61°
62°
62°
62°
63°
63°
63°
SSE
SSE
SSE
SSE
SSE
S
S
(mph)
5-10
5-9
4-9
4-8
3-8
3-8
4-9
(in)
0
0
0
0
0
0
0
(%)
20
30
23
17
10
7
4

Sun elevation

/ -23°
sun-icon
UV 5
05:38
20:20
Waning crescent (315°)
03:44
16:45

METAR for Wilmington Manor (KILG)

Time Conditions Temperature/
Dewpoint
Wind Visibility Weather Clouds Pressure Change Raw
LIFR 66.02°F / 64.94°F 160º 7kt >10km 0.76mm precipitation Overcast 400ft 1019 - KILG 270151Z 16007KT 8SM OVC004 19/18 A3011 RMK AO2 RAB00E44 SLP197 P0003 T01890183 $
LIFR 66.02°F / 64.94°F 140º 7kt 4000m Light Rain Mist 0.76mm precipitation Overcast 400ft - KILG 270134Z 14007KT 2 1/2SM -RA BR OVC004 19/18 A3011 RMK AO2 RAB00 P0003 T01890183 $
IFR 66.02°F / 64.04°F 150º 9kt 4000m Mist 0.51mm precipitation Overcast 500ft 1019 - KILG 270051Z 15009KT 2 1/2SM BR OVC005 19/18 A3011 RMK AO2 RAE44 SLP197 P0002 T01890178 $
IFR 66.02°F / 64.04°F 160º 8kt 3200m Light Rain Mist 0.51mm precipitation Overcast 500ft - KILG 270036Z 16008KT 2SM -RA BR OVC005 19/18 A3012 RMK AO2 P0002 T01890178 $
IFR 66.02°F / 64.04°F 170º 9kt 4800m Light Rain Mist 0.25mm precipitation Overcast 600ft - KILG 270012Z 17009KT 3SM -RA BR OVC006 19/18 A3013 RMK AO2 P0001 T01890178 $
IFR 66.02°F / 64.04°F 160º 10kt 2400m Light Rain Mist 0.25mm precipitation Overcast 500ft - KILG 270002Z 16010KT 1 1/2SM -RA BR OVC005 19/18 A3013 RMK AO2 P0001 T01890178 $
IFR 66.02°F / 64.04°F 170º 8kt 3200m Light Rain Mist 0.13mm precipitation Broken Clouds 500ft
Overcast 1300ft
1020 - KILG 262351Z 17008KT 2SM -RA BR BKN005 OVC013 19/18 A3014 RMK AO2 RAB43 SLP205 P0000 60000 T01890178 10228 20189 56004 $
IFR 66.02°F / 64.04°F 160º 11kt 2800m Mist Vertical Visibility of 0ft.
Overcast 1300ft
- KILG 262324Z 16011KT 1 3/4SM BR BKN005 OVC013 19/18 A3014 RMK AO2 T01890178 $
IFR 66.92°F / 64.04°F 160º 11kt 4800m Mist Vertical Visibility of 0ft.
Overcast 1300ft
- KILG 262256Z 16011KT 3SM BR BKN005 OVC013 19/18 A3014 RMK AO2 T01940178 $
MVFR 66.2°F / 64.4°F 160º 12kt 6400m Mist Vertical Visibility of 0ft.
Overcast 1500ft
- KILG 262247Z 16012KT 4SM BR SCT009 OVC015 19/18 A3014 RMK AO2 $
MVFR 69.08°F / 62.06°F 170º 11kt >10km - Scattered Clouds 1800ft
Broken Clouds 2300ft
Overcast 3000ft
- KILG 262201Z 17011KT 10SM SCT018 BKN023 OVC030 21/17 A3015 RMK AO2 T02060167 $
VFR 69.98°F / 62.06°F 170º 12kt >10km - Scattered Clouds 2100ft
Broken Clouds 3100ft
Overcast 4500ft
1020 - KILG 262151Z 17012KT 10SM SCT021 BKN031 OVC045 21/17 A3015 RMK AO2 SLP209 T02110167 $
VFR 71.96°F / 62.06°F 170º 14kt >10km - Few Clouds 2500ft
Broken Clouds 3600ft
Overcast 4600ft
1021 - KILG 262051Z 17014KT 10SM FEW025 BKN036 OVC046 22/17 A3016 RMK AO2 SLP212 T02220167 58022 $
VFR 71.96°F / 62.06°F 160º 15kt >10km - Few Clouds 3000ft
Overcast 3600ft
- KILG 262014Z 16015KT 10SM FEW030 OVC036 22/17 A3017 RMK AO2 T02220167 $
MVFR 71.96°F / 62.06°F 160º 14kt >10km - Broken Clouds 3000ft
Overcast 3600ft
- KILG 262001Z 16014KT 10SM BKN030 OVC036 22/17 A3017 RMK AO2 T02220167 $
MVFR 71.06°F / 62.06°F 160º 14kt >10km - Broken Clouds 2900ft
Overcast 3500ft
1022 - KILG 261951Z 16014KT 10SM BKN029 OVC035 22/17 A3018 RMK AO2 SLP220 T02170167 $
VFR 71.06°F / 60.08°F 170º 14kt >10km - Overcast 3300ft 1022 - KILG 261851Z 17014KT 10SM OVC033 22/16 A3020 RMK AO2 SLP227 T02170156
MVFR 71.06°F / 60.98°F 170º 14kt >10km - Overcast 3000ft 1023 - KILG 261751Z 17014KT 10SM OVC030 22/16 A3022 RMK AO2 SLP235 T02170161 10222 20144 56016
MVFR 69.08°F / 60.08°F 170º 11kt >10km - Overcast 2800ft - KILG 261717Z 17011KT 10SM OVC028 21/16 A3024 RMK AO2 T02060156
VFR 69.08°F / 60.08°F 170º 11kt >10km - Overcast 3100ft 1024 - KILG 261651Z 17011KT 10SM OVC031 21/16 A3025 RMK AO2 SLP244 T02060156
MVFR 69.08°F / 59°F 170º 12kt >10km - Few Clouds 2100ft
Overcast 3000ft
- KILG 261640Z 17012KT 10SM FEW021 OVC030 21/15 A3026 RMK AO2 T02060150
MVFR 69.08°F / 59°F 190º 12kt >10km - Few Clouds 2100ft
Broken Clouds 2900ft
Overcast 3300ft
1025 - KILG 261551Z 19012KT 10SM FEW021 BKN029 OVC033 21/15 A3027 RMK AO2 SLP250 T02060150
MVFR 69.08°F / 57.02°F 180º 8kt >10km - Broken Clouds 2600ft
Broken Clouds 3200ft
Overcast 4900ft
1025 - KILG 261451Z 18008KT 10SM BKN026 BKN032 OVC049 21/14 A3028 RMK AO2 SLP253 T02060139 58014
VFR 64.04°F / 55.04°F 150º 4kt >10km - Overcast 5000ft 1025 - KILG 261351Z 15004KT 10SM OVC050 18/13 A3030 RMK AO2 SLP259 T01780128

LIFR

66.02°F / 64.94°F

[More]
Wind 160º 7kt
Visibility >10km
Weather 0.76mm precipitation
Clouds Overcast 400ft
Pressure 1019
Change -
Raw KILG 270151Z 16007KT 8SM OVC004 19/18 A3011 RMK AO2 RAB00E44 SLP197 P0003 T01890183 $

LIFR

66.02°F / 64.94°F

[More]
Wind 140º 7kt
Visibility 4000m
Weather Light Rain Mist 0.76mm precipitation
Clouds Overcast 400ft
Pressure
Change -
Raw KILG 270134Z 14007KT 2 1/2SM -RA BR OVC004 19/18 A3011 RMK AO2 RAB00 P0003 T01890183 $

IFR

66.02°F / 64.04°F

[More]
Wind 150º 9kt
Visibility 4000m
Weather Mist 0.51mm precipitation
Clouds Overcast 500ft
Pressure 1019
Change -
Raw KILG 270051Z 15009KT 2 1/2SM BR OVC005 19/18 A3011 RMK AO2 RAE44 SLP197 P0002 T01890178 $

IFR

66.02°F / 64.04°F

[More]
Wind 160º 8kt
Visibility 3200m
Weather Light Rain Mist 0.51mm precipitation
Clouds Overcast 500ft
Pressure
Change -
Raw KILG 270036Z 16008KT 2SM -RA BR OVC005 19/18 A3012 RMK AO2 P0002 T01890178 $

IFR

66.02°F / 64.04°F

[More]
Wind 170º 9kt
Visibility 4800m
Weather Light Rain Mist 0.25mm precipitation
Clouds Overcast 600ft
Pressure
Change -
Raw KILG 270012Z 17009KT 3SM -RA BR OVC006 19/18 A3013 RMK AO2 P0001 T01890178 $

IFR

66.02°F / 64.04°F

[More]
Wind 160º 10kt
Visibility 2400m
Weather Light Rain Mist 0.25mm precipitation
Clouds Overcast 500ft
Pressure
Change -
Raw KILG 270002Z 16010KT 1 1/2SM -RA BR OVC005 19/18 A3013 RMK AO2 P0001 T01890178 $

IFR

66.02°F / 64.04°F

[More]
Wind 170º 8kt
Visibility 3200m
Weather Light Rain Mist 0.13mm precipitation
Clouds Broken Clouds 500ft
Overcast 1300ft
Pressure 1020
Change -
Raw KILG 262351Z 17008KT 2SM -RA BR BKN005 OVC013 19/18 A3014 RMK AO2 RAB43 SLP205 P0000 60000 T01890178 10228 20189 56004 $

IFR

66.02°F / 64.04°F

[More]
Wind 160º 11kt
Visibility 2800m
Weather Mist
Clouds Vertical Visibility of 0ft.
Overcast 1300ft
Pressure
Change -
Raw KILG 262324Z 16011KT 1 3/4SM BR BKN005 OVC013 19/18 A3014 RMK AO2 T01890178 $

IFR

66.92°F / 64.04°F

[More]
Wind 160º 11kt
Visibility 4800m
Weather Mist
Clouds Vertical Visibility of 0ft.
Overcast 1300ft
Pressure
Change -
Raw KILG 262256Z 16011KT 3SM BR BKN005 OVC013 19/18 A3014 RMK AO2 T01940178 $

MVFR

66.2°F / 64.4°F

[More]
Wind 160º 12kt
Visibility 6400m
Weather Mist
Clouds Vertical Visibility of 0ft.
Overcast 1500ft
Pressure
Change -
Raw KILG 262247Z 16012KT 4SM BR SCT009 OVC015 19/18 A3014 RMK AO2 $

MVFR

69.08°F / 62.06°F

[More]
Wind 170º 11kt
Visibility >10km
Weather -
Clouds Scattered Clouds 1800ft
Broken Clouds 2300ft
Overcast 3000ft
Pressure
Change -
Raw KILG 262201Z 17011KT 10SM SCT018 BKN023 OVC030 21/17 A3015 RMK AO2 T02060167 $

VFR

69.98°F / 62.06°F

[More]
Wind 170º 12kt
Visibility >10km
Weather -
Clouds Scattered Clouds 2100ft
Broken Clouds 3100ft
Overcast 4500ft
Pressure 1020
Change -
Raw KILG 262151Z 17012KT 10SM SCT021 BKN031 OVC045 21/17 A3015 RMK AO2 SLP209 T02110167 $

VFR

71.96°F / 62.06°F

[More]
Wind 170º 14kt
Visibility >10km
Weather -
Clouds Few Clouds 2500ft
Broken Clouds 3600ft
Overcast 4600ft
Pressure 1021
Change -
Raw KILG 262051Z 17014KT 10SM FEW025 BKN036 OVC046 22/17 A3016 RMK AO2 SLP212 T02220167 58022 $

VFR

71.96°F / 62.06°F

[More]
Wind 160º 15kt
Visibility >10km
Weather -
Clouds Few Clouds 3000ft
Overcast 3600ft
Pressure
Change -
Raw KILG 262014Z 16015KT 10SM FEW030 OVC036 22/17 A3017 RMK AO2 T02220167 $

MVFR

71.96°F / 62.06°F

[More]
Wind 160º 14kt
Visibility >10km
Weather -
Clouds Broken Clouds 3000ft
Overcast 3600ft
Pressure
Change -
Raw KILG 262001Z 16014KT 10SM BKN030 OVC036 22/17 A3017 RMK AO2 T02220167 $

MVFR

71.06°F / 62.06°F

[More]
Wind 160º 14kt
Visibility >10km
Weather -
Clouds Broken Clouds 2900ft
Overcast 3500ft
Pressure 1022
Change -
Raw KILG 261951Z 16014KT 10SM BKN029 OVC035 22/17 A3018 RMK AO2 SLP220 T02170167 $

VFR

71.06°F / 60.08°F

[More]
Wind 170º 14kt
Visibility >10km
Weather -
Clouds Overcast 3300ft
Pressure 1022
Change -
Raw KILG 261851Z 17014KT 10SM OVC033 22/16 A3020 RMK AO2 SLP227 T02170156

MVFR

71.06°F / 60.98°F

[More]
Wind 170º 14kt
Visibility >10km
Weather -
Clouds Overcast 3000ft
Pressure 1023
Change -
Raw KILG 261751Z 17014KT 10SM OVC030 22/16 A3022 RMK AO2 SLP235 T02170161 10222 20144 56016

MVFR

69.08°F / 60.08°F

[More]
Wind 170º 11kt
Visibility >10km
Weather -
Clouds Overcast 2800ft
Pressure
Change -
Raw KILG 261717Z 17011KT 10SM OVC028 21/16 A3024 RMK AO2 T02060156

VFR

69.08°F / 60.08°F

[More]
Wind 170º 11kt
Visibility >10km
Weather -
Clouds Overcast 3100ft
Pressure 1024
Change -
Raw KILG 261651Z 17011KT 10SM OVC031 21/16 A3025 RMK AO2 SLP244 T02060156

MVFR

69.08°F / 59°F

[More]
Wind 170º 12kt
Visibility >10km
Weather -
Clouds Few Clouds 2100ft
Overcast 3000ft
Pressure
Change -
Raw KILG 261640Z 17012KT 10SM FEW021 OVC030 21/15 A3026 RMK AO2 T02060150

MVFR

69.08°F / 59°F

[More]
Wind 190º 12kt
Visibility >10km
Weather -
Clouds Few Clouds 2100ft
Broken Clouds 2900ft
Overcast 3300ft
Pressure 1025
Change -
Raw KILG 261551Z 19012KT 10SM FEW021 BKN029 OVC033 21/15 A3027 RMK AO2 SLP250 T02060150

MVFR

69.08°F / 57.02°F

[More]
Wind 180º 8kt
Visibility >10km
Weather -
Clouds Broken Clouds 2600ft
Broken Clouds 3200ft
Overcast 4900ft
Pressure 1025
Change -
Raw KILG 261451Z 18008KT 10SM BKN026 BKN032 OVC049 21/14 A3028 RMK AO2 SLP253 T02060139 58014

VFR

64.04°F / 55.04°F

[More]
Wind 150º 4kt
Visibility >10km
Weather -
Clouds Overcast 5000ft
Pressure 1025
Change -
Raw KILG 261351Z 15004KT 10SM OVC050 18/13 A3030 RMK AO2 SLP259 T01780128

TAF for Wilmington Manor (KILG)

From till


From till Wind 160º 10kt. Visibility 3200m. Mist . Overcast 500ft.
From till Wind 160º 5kt. Visibility 3200m. Light Drizzle Mist . Overcast 300ft.
From till Wind 190º 8kt. Visibility 8000m. Light Drizzle Mist . Overcast 800ft.
From till Wind 200º 9kt. Visibility 10km or more. Overcast 800ft.
From till Wind 200º 10kt. Gust 18kt. Visibility 8000m. Heavy Showers Rain in the Vicinity Thunderstorm . Overcast 1000ft.

Raw: KILG 270129Z 2701/2724 16010KT 2SM BR OVC005 FM270400 16005KT 2SM -DZ BR OVC003 FM271300 19008KT 5SM -DZ BR OVC008 FM271600 20009KT P6SM OVC008 FM271900 20010G18KT 5SM +SHRA VCTS OVC010CB

Radar and precipitation nowcast for Wilmington Manor

Drizzle
Light
Moderate
Heavy
Very Heavy
Hail

The location marker is placed on Wilmington Manor. This animation shows the precipitation radar for the last hour, as well as a 1h forecast. Drizzle or light snow fall might be invisible for the radar. Precipitation intensity is colour coded, ranging from light blue to orange.

Current satellite images for Wilmington Manor, United States

The location marker is placed on Wilmington Manor. [More]

The real-time satellite image combines visible light during daytime with infrared radiation during nighttime. At night, the image is not dark as infrared radiation can detect temperature differences. Unfortunately, low clouds and fog are difficult to distinguish from ground temperatures and thus can be almost invisible during the night. Meteosat satellite images for Europe are updated in real-time every 5 minutes. GOES-16/GOES-17 (North & South America) and Himawari (Asia) images update every 10 minutes.

Back to top